createdAt,value
2023-03-29T00:00:32.965Z,0.4902
2023-03-29T00:01:36.209Z,0.5003
2023-03-29T00:02:35.210Z,0.5005
2023-03-29T00:03:36.381Z,0.5052
2023-03-29T00:04:37.455Z,0.5067
2023-03-29T00:05:38.487Z,0.5062
2023-03-29T00:06:39.603Z,0.5104
2023-03-29T00:07:40.698Z,0.5149
2023-03-29T00:08:41.785Z,0.5218
2023-03-29T00:09:43.337Z,0.5147
2023-03-29T00:10:43.973Z,0.5122
2023-03-29T00:11:45.103Z,0.5103
2023-03-29T00:12:46.190Z,0.5130
2023-03-29T00:13:47.303Z,0.5121
2023-03-29T00:14:48.390Z,0.5081
2023-03-29T00:15:49.496Z,0.5061
2023-03-29T00:16:50.615Z,0.5069
2023-03-29T00:17:51.731Z,0.5047
2023-03-29T00:18:52.800Z,0.5102
2023-03-29T00:19:53.936Z,0.5090
2023-03-29T00:20:55.008Z,0.5083
2023-03-29T00:21:56.825Z,0.5058
2023-03-29T00:22:57.205Z,0.5047
2023-03-29T00:23:58.325Z,0.5059
2023-03-29T00:24:59.436Z,0.5020
2023-03-29T00:26:00.521Z,0.4968
2023-03-29T00:27:01.612Z,0.4890
2023-03-29T00:28:02.757Z,0.4842
2023-03-29T00:29:03.811Z,0.4903
2023-03-29T00:30:04.930Z,0.4979
2023-03-29T00:31:06.033Z,0.5026
2023-03-29T00:32:07.125Z,0.4994
2023-03-29T00:33:08.236Z,0.4946
2023-03-29T00:34:09.315Z,0.4927
2023-03-29T00:35:10.433Z,0.4969
2023-03-29T00:36:11.523Z,0.4990
2023-03-29T00:37:12.621Z,0.4962
2023-03-29T00:38:13.734Z,0.4940
2023-03-29T00:39:14.866Z,0.4937
2023-03-29T00:40:16.388Z,0.4871
2023-03-29T00:41:17.019Z,0.4888
2023-03-29T00:42:18.119Z,0.4929
2023-03-29T00:43:19.216Z,0.4975
2023-03-29T00:44:20.334Z,0.4982
2023-03-29T00:45:21.443Z,0.5028
2023-03-29T00:46:22.588Z,0.5034
2023-03-29T00:47:23.728Z,0.4992
2023-03-29T00:48:24.752Z,0.4986
2023-03-29T00:49:25.831Z,0.4947
2023-03-29T00:50:26.962Z,0.4913
2023-03-29T00:51:28.049Z,0.4944
2023-03-29T00:52:29.156Z,0.4954
2023-03-29T00:53:30.275Z,0.4969
2023-03-29T00:54:31.357Z,0.4939
2023-03-29T00:55:32.464Z,0.4978
2023-03-29T00:56:33.577Z,0.5010
2023-03-29T00:57:34.654Z,0.5055
2023-03-29T00:58:35.771Z,0.5109
2023-03-29T00:59:36.867Z,0.5141
2023-03-29T01:00:38.000Z,0.5192
2023-03-29T01:01:39.104Z,0.5193
2023-03-29T01:02:40.262Z,0.5125
2023-03-29T01:03:41.393Z,0.5043
2023-03-29T01:04:42.401Z,0.5057
2023-03-29T01:05:43.498Z,0.5008
2023-03-29T01:06:44.655Z,0.5039
2023-03-29T01:07:45.699Z,0.5079
2023-03-29T01:08:46.795Z,0.5115
2023-03-29T01:09:47.897Z,0.5115
2023-03-29T01:10:49.020Z,0.5175
2023-03-29T01:11:50.093Z,0.5146
2023-03-29T01:12:51.215Z,0.5135
2023-03-29T01:13:52.303Z,0.5053
2023-03-29T01:14:53.419Z,0.5053
2023-03-29T01:15:54.515Z,0.5108
2023-03-29T01:16:55.787Z,0.5075
2023-03-29T01:17:56.745Z,0.5100
2023-03-29T01:18:57.815Z,0.5091
2023-03-29T01:19:58.924Z,0.5097
2023-03-29T01:21:00.193Z,0.5077
2023-03-29T01:22:01.111Z,0.5078
2023-03-29T01:23:02.241Z,0.5116
2023-03-29T01:24:03.322Z,0.5048
2023-03-29T01:25:04.431Z,0.5019
2023-03-29T01:26:05.542Z,0.5025
2023-03-29T01:27:06.635Z,0.5083
2023-03-29T01:28:07.717Z,0.5107
2023-03-29T01:29:08.833Z,0.5123
2023-03-29T01:30:09.921Z,0.5109
2023-03-29T01:31:11.065Z,0.5134
2023-03-29T01:32:12.150Z,0.5129
2023-03-29T01:33:13.265Z,0.5133
2023-03-29T01:34:14.331Z,0.5102
2023-03-29T01:35:15.448Z,0.5096
2023-03-29T01:36:16.884Z,0.5024
2023-03-29T01:37:17.665Z,0.4957
2023-03-29T01:38:18.764Z,0.4913
2023-03-29T01:39:19.861Z,0.4951
2023-03-29T01:40:20.961Z,0.4954
2023-03-29T01:41:23.265Z,0.4961
2023-03-29T01:42:23.156Z,0.4983
2023-03-29T01:43:24.268Z,0.4997
2023-03-29T01:44:25.361Z,0.5002
2023-03-29T01:45:26.486Z,0.5031
2023-03-29T01:46:27.882Z,0.4991
2023-03-29T01:47:28.686Z,0.4977
2023-03-29T01:48:29.775Z,0.4918
2023-03-29T01:49:30.911Z,0.4837
2023-03-29T01:50:31.980Z,0.4829
2023-03-29T01:51:33.098Z,0.4849
2023-03-29T01:52:34.169Z,0.4839
2023-03-29T01:53:35.288Z,0.4874
2023-03-29T01:54:36.380Z,0.4907
2023-03-29T01:55:37.489Z,0.4897
2023-03-29T01:56:38.636Z,0.4906
2023-03-29T01:57:39.684Z,0.4861
2023-03-29T01:58:40.790Z,0.4831
2023-03-29T01:59:41.894Z,0.4862
2023-03-29T02:00:42.985Z,0.4880
2023-03-29T02:01:44.184Z,0.4914
2023-03-29T02:02:45.285Z,0.4941
2023-03-29T02:03:46.350Z,0.4944
2023-03-29T02:04:47.394Z,0.4895
2023-03-29T02:05:48.527Z,0.4834
2023-03-29T02:06:49.630Z,0.4854
2023-03-29T02:07:50.722Z,0.4843
2023-03-29T02:08:51.813Z,0.4891
2023-03-29T02:09:52.933Z,0.4939
2023-03-29T02:10:54.029Z,0.4927
2023-03-29T02:11:55.156Z,0.4935
2023-03-29T02:12:56.238Z,0.4901
2023-03-29T02:13:57.359Z,0.4905
2023-03-29T02:14:58.446Z,0.4940
2023-03-29T02:15:59.639Z,0.4970
2023-03-29T02:17:00.882Z,0.4948
2023-03-29T02:18:01.816Z,0.4959
2023-03-29T02:19:02.878Z,0.4885
2023-03-29T02:20:04.002Z,0.4906
2023-03-29T02:21:05.076Z,0.4904
2023-03-29T02:22:06.226Z,0.4904
2023-03-29T02:23:07.309Z,0.4919
2023-03-29T02:24:08.417Z,0.4929
2023-03-29T02:25:09.515Z,0.4935
2023-03-29T02:26:10.636Z,0.4914
2023-03-29T02:27:11.751Z,0.4934
2023-03-29T02:28:12.850Z,0.4939
2023-03-29T02:29:13.944Z,0.4916
2023-03-29T02:30:15.051Z,0.4896
2023-03-29T02:31:16.203Z,0.4848
2023-03-29T02:32:17.274Z,0.4835
2023-03-29T02:33:18.402Z,0.4840
2023-03-29T02:34:19.478Z,0.4899
2023-03-29T02:35:20.563Z,0.4936
2023-03-29T02:36:21.678Z,0.4994
2023-03-29T02:37:22.792Z,0.4951
2023-03-29T02:38:23.892Z,0.4924
2023-03-29T02:39:24.984Z,0.4880
2023-03-29T02:40:26.135Z,0.4850
2023-03-29T02:41:27.199Z,0.4907
2023-03-29T02:42:28.374Z,0.4917
2023-03-29T02:43:29.408Z,0.4953
2023-03-29T02:44:30.522Z,0.4966
2023-03-29T02:45:31.614Z,0.4969
2023-03-29T02:46:32.778Z,0.4958
2023-03-29T02:47:33.910Z,0.4970
2023-03-29T02:48:34.930Z,0.4970
2023-03-29T02:49:36.027Z,0.4973
2023-03-29T02:50:37.136Z,0.4942
2023-03-29T02:51:38.244Z,0.4938
2023-03-29T02:52:39.380Z,0.4920
2023-03-29T02:53:40.436Z,0.4901
2023-03-29T02:54:41.558Z,0.4840
2023-03-29T02:55:42.656Z,0.4854
2023-03-29T02:56:43.796Z,0.4864
2023-03-29T02:57:44.887Z,0.4902
2023-03-29T02:58:45.966Z,0.4858
2023-03-29T02:59:47.086Z,0.4829
2023-03-29T03:00:48.177Z,0.4831
2023-03-29T03:01:49.316Z,0.4885
2023-03-29T03:02:50.440Z,0.4984
2023-03-29T03:03:51.581Z,0.5007
2023-03-29T03:04:52.628Z,0.5006
2023-03-29T03:05:53.729Z,0.4969
2023-03-29T03:06:54.813Z,0.4946
2023-03-29T03:07:55.937Z,0.4943
2023-03-29T03:08:57.018Z,0.4991
2023-03-29T03:09:58.137Z,0.5015
2023-03-29T03:10:59.325Z,0.5041
2023-03-29T03:12:00.354Z,0.5047
2023-03-29T03:13:01.455Z,0.5101
2023-03-29T03:14:02.561Z,0.5058
2023-03-29T03:15:03.660Z,0.5076
2023-03-29T03:16:04.819Z,0.5103
2023-03-29T03:17:05.855Z,0.5119
2023-03-29T03:18:07.466Z,0.5146
2023-03-29T03:19:08.066Z,0.5148
2023-03-29T03:20:09.178Z,0.5146
2023-03-29T03:21:10.270Z,0.5145
2023-03-29T03:22:11.389Z,0.5161
2023-03-29T03:23:12.478Z,0.5103
2023-03-29T03:24:13.573Z,0.5039
2023-03-29T03:25:14.673Z,0.5028
2023-03-29T03:26:15.789Z,0.5001
2023-03-29T03:27:16.867Z,0.5025
2023-03-29T03:28:18.419Z,0.5061
2023-03-29T03:29:19.079Z,0.5107
2023-03-29T03:30:20.249Z,0.5102
2023-03-29T03:31:21.442Z,0.5142
2023-03-29T03:32:22.458Z,0.5162
2023-03-29T03:33:23.559Z,0.5119
2023-03-29T03:34:24.648Z,0.5065
2023-03-29T03:35:25.762Z,0.5050
2023-03-29T03:36:26.854Z,0.5076
2023-03-29T03:37:27.973Z,0.5110
2023-03-29T03:38:29.063Z,0.5115
2023-03-29T03:39:30.137Z,0.5138
2023-03-29T03:40:31.238Z,0.5141
2023-03-29T03:41:32.329Z,0.5153
2023-03-29T03:42:33.441Z,0.5161
2023-03-29T03:43:34.604Z,0.5155
2023-03-29T03:44:35.648Z,0.5160
2023-03-29T03:45:36.722Z,0.5125
2023-03-29T03:46:37.844Z,0.5098
2023-03-29T03:47:38.967Z,0.5095
2023-03-29T03:48:40.053Z,0.5101
2023-03-29T03:49:41.114Z,0.5051
2023-03-29T03:50:42.237Z,0.5037
2023-03-29T03:51:43.335Z,0.5003
2023-03-29T03:52:44.434Z,0.5014
2023-03-29T03:53:45.545Z,0.4966
2023-03-29T03:54:46.644Z,0.4963
2023-03-29T03:55:47.737Z,0.5014
2023-03-29T03:56:48.884Z,0.5008
2023-03-29T03:57:49.944Z,0.5020
2023-03-29T03:58:51.076Z,0.5043
2023-03-29T03:59:52.150Z,0.5039
2023-03-29T04:00:53.309Z,0.5085
2023-03-29T04:01:54.349Z,0.5105
2023-03-29T04:02:55.555Z,0.5167
2023-03-29T04:03:56.649Z,0.5162
2023-03-29T04:04:57.684Z,0.5107
2023-03-29T04:05:58.774Z,0.5122
2023-03-29T04:06:59.873Z,0.5121
2023-03-29T04:08:00.971Z,0.5094
2023-03-29T04:09:02.119Z,0.5024
2023-03-29T04:10:03.202Z,0.4992
2023-03-29T04:11:04.464Z,0.5015
2023-03-29T04:12:05.371Z,0.5005
2023-03-29T04:13:06.515Z,0.5013
2023-03-29T04:14:07.600Z,0.5039
2023-03-29T04:15:08.717Z,0.5074
2023-03-29T04:16:09.846Z,0.5167
2023-03-29T04:17:10.897Z,0.5185
2023-03-29T04:18:12.034Z,0.5193
2023-03-29T04:19:13.110Z,0.5258
2023-03-29T04:20:14.163Z,0.5263
2023-03-29T04:21:15.298Z,0.5228
2023-03-29T04:22:16.365Z,0.5222
2023-03-29T04:23:17.480Z,0.5196
2023-03-29T04:24:18.582Z,0.5198
2023-03-29T04:25:19.680Z,0.5165
2023-03-29T04:26:20.766Z,0.5093
2023-03-29T04:27:21.884Z,0.5035
2023-03-29T04:28:22.969Z,0.5038
2023-03-29T04:29:24.116Z,0.5024
2023-03-29T04:30:25.192Z,0.5079
2023-03-29T04:31:26.300Z,0.5099
2023-03-29T04:32:27.382Z,0.5095
2023-03-29T04:33:28.473Z,0.5075
2023-03-29T04:34:29.588Z,0.5057
2023-03-29T04:35:30.703Z,0.5079
2023-03-29T04:36:31.765Z,0.5092
2023-03-29T04:37:32.888Z,0.5054
2023-03-29T04:38:33.967Z,0.4988
2023-03-29T04:39:35.136Z,0.5032
2023-03-29T04:40:36.168Z,0.5066
2023-03-29T04:41:37.265Z,0.5040
2023-03-29T04:42:38.378Z,0.5042
2023-03-29T04:43:40.352Z,0.5095
2023-03-29T04:44:40.673Z,0.5141
2023-03-29T04:45:41.709Z,0.5188
2023-03-29T04:46:42.833Z,0.5248
2023-03-29T04:47:43.929Z,0.5302
2023-03-29T04:48:45.001Z,0.5277
2023-03-29T04:49:46.129Z,0.5302
2023-03-29T04:50:47.200Z,0.5281
2023-03-29T04:51:48.309Z,0.5319
2023-03-29T04:52:49.393Z,0.5317
2023-03-29T04:53:50.508Z,0.5300
2023-03-29T04:54:51.619Z,0.5257
2023-03-29T04:55:52.709Z,0.5231
2023-03-29T04:56:53.840Z,0.5221
2023-03-29T04:57:54.906Z,0.5226
2023-03-29T04:58:55.996Z,0.5204
2023-03-29T04:59:57.481Z,0.5157
2023-03-29T05:00:58.199Z,0.5195
2023-03-29T05:01:59.334Z,0.5223
2023-03-29T05:03:00.611Z,0.5225
2023-03-29T05:04:01.568Z,0.5241
2023-03-29T05:05:02.654Z,0.5273
2023-03-29T05:06:03.910Z,0.5278
2023-03-29T05:07:04.979Z,0.5210
2023-03-29T05:08:05.901Z,0.5202
2023-03-29T05:09:06.988Z,0.5186
2023-03-29T05:10:08.119Z,0.5153
2023-03-29T05:11:09.196Z,0.5174
2023-03-29T05:12:10.307Z,0.5137
2023-03-29T05:13:11.396Z,0.5170
2023-03-29T05:14:12.504Z,0.5163
2023-03-29T05:15:13.618Z,0.5181
2023-03-29T05:16:14.770Z,0.5155
2023-03-29T05:17:15.796Z,0.5155
2023-03-29T05:18:16.908Z,0.5122
2023-03-29T05:19:18.003Z,0.5070
2023-03-29T05:20:19.145Z,0.5043
2023-03-29T05:21:20.201Z,0.5057
2023-03-29T05:22:21.313Z,0.4994
2023-03-29T05:23:22.396Z,0.4953
2023-03-29T05:24:23.524Z,0.4897
2023-03-29T05:25:24.623Z,0.4938
2023-03-29T05:26:25.741Z,0.5011
2023-03-29T05:27:26.789Z,0.4980
2023-03-29T05:28:27.914Z,0.4907
2023-03-29T05:29:29.014Z,0.4909
2023-03-29T05:30:30.482Z,0.4964
2023-03-29T05:31:31.252Z,0.4977
2023-03-29T05:32:32.422Z,0.5039
2023-03-29T05:33:33.404Z,0.5042
2023-03-29T05:34:34.551Z,0.4996
2023-03-29T05:35:35.649Z,0.4982
2023-03-29T05:36:36.731Z,0.5004
2023-03-29T05:37:37.830Z,0.5006
2023-03-29T05:38:38.938Z,0.4938
2023-03-29T05:39:40.022Z,0.4925
2023-03-29T05:40:41.176Z,0.4921
2023-03-29T05:41:42.227Z,0.4936
2023-03-29T05:42:43.356Z,0.4980
2023-03-29T05:43:44.421Z,0.5037
2023-03-29T05:44:45.538Z,0.5017
2023-03-29T05:45:46.741Z,0.4972
2023-03-29T05:46:47.744Z,0.4994
2023-03-29T05:47:48.873Z,0.5003
2023-03-29T05:48:49.958Z,0.5053
2023-03-29T05:49:51.056Z,0.5117
2023-03-29T05:50:52.146Z,0.5132
2023-03-29T05:51:53.226Z,0.5142
2023-03-29T05:52:54.356Z,0.5101
2023-03-29T05:53:55.452Z,0.5110
2023-03-29T05:54:56.552Z,0.5103
2023-03-29T05:55:57.647Z,0.5082
2023-03-29T05:56:58.778Z,0.5070
2023-03-29T05:57:59.850Z,0.5050
2023-03-29T05:59:00.954Z,0.5010
2023-03-29T06:00:02.085Z,0.5032
2023-03-29T06:01:03.345Z,0.5007
2023-03-29T06:02:04.243Z,0.5035
2023-03-29T06:03:17.534Z,0.5042
2023-03-29T06:04:07.495Z,0.5020
2023-03-29T06:05:07.606Z,0.4968
2023-03-29T06:06:08.662Z,0.4972
2023-03-29T06:07:09.759Z,0.4932
2023-03-29T06:08:10.838Z,0.4994
2023-03-29T06:09:11.972Z,0.5031
2023-03-29T06:10:13.068Z,0.5071
2023-03-29T06:11:14.201Z,0.5067
2023-03-29T06:12:15.270Z,0.5099
2023-03-29T06:13:16.397Z,0.5141
2023-03-29T06:14:17.477Z,0.5205
2023-03-29T06:15:18.595Z,0.5287
2023-03-29T06:16:19.979Z,0.5374
2023-03-29T06:17:20.851Z,0.5476
2023-03-29T06:18:21.895Z,0.5657
2023-03-29T06:19:23.005Z,0.5803
2023-03-29T06:20:24.096Z,0.5840
2023-03-29T06:21:25.219Z,0.5936
2023-03-29T06:22:26.285Z,0.6077
2023-03-29T06:23:27.405Z,0.6043
2023-03-29T06:24:28.508Z,0.5997
2023-03-29T06:25:29.634Z,0.6107
2023-03-29T06:26:30.725Z,0.6125
2023-03-29T06:27:31.851Z,0.6228
2023-03-29T06:28:32.961Z,0.6334
2023-03-29T06:29:34.047Z,0.6435
2023-03-29T06:30:35.136Z,0.5905
2023-03-29T06:31:36.374Z,0.5902
2023-03-29T06:32:37.359Z,0.5994
2023-03-29T06:33:38.454Z,0.5947
2023-03-29T06:34:39.546Z,0.5978
2023-03-29T06:35:40.675Z,0.6084
2023-03-29T06:36:41.758Z,0.6146
2023-03-29T06:37:42.854Z,0.6053
2023-03-29T06:38:43.975Z,0.6038
2023-03-29T06:39:45.079Z,0.6155
2023-03-29T06:40:46.162Z,0.6182
2023-03-29T06:41:47.296Z,0.6319
2023-03-29T06:42:48.414Z,0.6322
2023-03-29T06:43:49.510Z,0.6278
2023-03-29T06:44:50.572Z,0.6301
2023-03-29T06:45:51.695Z,0.6330
2023-03-29T06:46:52.866Z,0.6223
2023-03-29T06:47:53.985Z,0.6194
2023-03-29T06:48:55.001Z,0.6027
2023-03-29T06:49:56.105Z,0.5931
2023-03-29T06:50:57.179Z,0.5808
2023-03-29T06:51:58.345Z,0.5847
2023-03-29T06:52:59.389Z,0.5825
2023-03-29T06:54:00.510Z,0.5815
2023-03-29T06:55:01.687Z,0.5783
2023-03-29T06:56:02.705Z,0.5843
2023-03-29T06:57:03.832Z,0.5934
2023-03-29T06:58:04.898Z,0.5978
2023-03-29T06:59:06.000Z,0.5967
2023-03-29T07:00:07.103Z,0.6004
2023-03-29T07:01:08.412Z,0.5924
2023-03-29T07:02:09.420Z,0.5959
2023-03-29T07:03:10.423Z,0.6043
2023-03-29T07:04:11.531Z,0.6153
2023-03-29T07:05:12.578Z,0.6245
2023-03-29T07:06:13.703Z,0.6210
2023-03-29T07:07:14.809Z,0.6243
2023-03-29T07:08:15.882Z,0.6097
2023-03-29T07:09:19.347Z,0.6034
2023-03-29T07:10:18.086Z,0.5887
2023-03-29T07:11:19.169Z,0.5882
2023-03-29T07:12:20.496Z,0.5814
2023-03-29T07:13:21.356Z,0.5810
2023-03-29T07:14:22.492Z,0.5728
2023-03-29T07:15:23.563Z,0.5703
2023-03-29T07:16:24.763Z,0.5696
2023-03-29T07:17:25.811Z,0.5780
2023-03-29T07:18:26.852Z,0.5832
2023-03-29T07:19:27.962Z,0.5833
2023-03-29T07:20:29.057Z,0.5859
2023-03-29T07:21:30.169Z,0.5815
2023-03-29T07:22:31.408Z,0.5833
2023-03-29T07:23:32.362Z,0.5798
2023-03-29T07:24:33.456Z,0.5792
2023-03-29T07:25:34.570Z,0.5791
2023-03-29T07:26:35.637Z,0.5712
2023-03-29T07:27:36.784Z,0.5666
2023-03-29T07:28:37.848Z,0.5828
2023-03-29T07:29:38.975Z,0.5981
2023-03-29T07:30:40.031Z,0.6024
2023-03-29T07:31:41.210Z,0.6167
2023-03-29T07:32:42.403Z,0.6188
2023-03-29T07:33:43.607Z,0.6279
2023-03-29T07:34:44.519Z,0.6267
2023-03-29T07:35:45.645Z,0.6256
2023-03-29T07:36:46.689Z,0.6276
2023-03-29T07:37:48.015Z,0.6100
2023-03-29T07:38:48.910Z,0.6004
2023-03-29T07:39:49.994Z,0.6103
2023-03-29T07:40:51.071Z,0.6115
2023-03-29T07:41:52.188Z,0.6178
2023-03-29T07:42:53.291Z,0.6115
2023-03-29T07:43:54.382Z,0.6104
2023-03-29T07:44:55.469Z,0.6087
2023-03-29T07:45:56.608Z,0.6138
2023-03-29T07:46:57.650Z,0.5991
2023-03-29T07:47:59.050Z,0.5866
2023-03-29T07:48:59.859Z,0.5863
2023-03-29T07:50:00.977Z,0.5828
2023-03-29T07:51:02.267Z,0.5833
2023-03-29T07:52:03.152Z,0.5921
2023-03-29T07:53:04.306Z,0.6050
2023-03-29T07:54:05.417Z,0.6132
2023-03-29T07:55:06.453Z,0.6151
2023-03-29T07:56:07.553Z,0.6206
2023-03-29T07:57:08.722Z,0.6220
2023-03-29T07:58:10.018Z,0.6137
2023-03-29T07:59:10.888Z,0.6022
2023-03-29T08:00:11.962Z,0.6093
2023-03-29T08:01:15.372Z,0.6090
2023-03-29T08:02:14.194Z,0.6073
2023-03-29T08:03:15.659Z,0.5972
2023-03-29T08:04:16.438Z,0.6039
2023-03-29T08:05:23.272Z,0.6065
2023-03-29T08:06:19.561Z,0.5952
2023-03-29T08:07:19.650Z,0.5980
2023-03-29T08:08:20.772Z,0.5948
2023-03-29T08:09:21.908Z,0.5966
2023-03-29T08:10:22.989Z,0.5976
2023-03-29T08:11:24.045Z,0.5872
2023-03-29T08:12:25.176Z,0.5788
2023-03-29T08:13:26.279Z,0.5685
2023-03-29T08:14:27.359Z,0.5499
2023-03-29T08:15:28.447Z,0.5496
2023-03-29T08:16:29.659Z,0.5473
2023-03-29T08:17:30.716Z,0.5473
2023-03-29T08:18:34.127Z,0.5590
2023-03-29T08:19:32.860Z,0.5677
2023-03-29T08:20:33.965Z,0.5723
2023-03-29T08:21:35.068Z,0.5801
2023-03-29T08:22:36.198Z,0.5872
2023-03-29T08:23:37.273Z,0.5937
2023-03-29T08:24:38.400Z,0.6038
2023-03-29T08:25:39.462Z,0.5965
2023-03-29T08:26:40.578Z,0.5953
2023-03-29T08:27:41.686Z,0.5924
2023-03-29T08:28:43.118Z,0.5833
2023-03-29T08:29:43.877Z,0.5789
2023-03-29T08:30:45.044Z,0.5836
2023-03-29T08:31:46.064Z,0.5787
2023-03-29T08:32:49.893Z,0.5771
2023-03-29T08:33:48.530Z,0.5854
2023-03-29T08:34:49.391Z,0.5922
2023-03-29T08:35:50.532Z,0.5927
2023-03-29T08:36:51.710Z,0.5962
2023-03-29T08:37:52.847Z,0.6100
2023-03-29T08:38:53.803Z,0.6286
2023-03-29T08:39:54.863Z,0.6423
2023-03-29T08:40:55.981Z,0.6557
2023-03-29T08:41:57.073Z,0.6697
2023-03-29T08:42:58.174Z,0.6618
2023-03-29T08:43:59.282Z,0.6505
2023-03-29T08:45:00.383Z,0.6621
2023-03-29T08:46:01.513Z,0.6613
2023-03-29T08:47:02.611Z,0.6577
2023-03-29T08:48:03.708Z,0.6671
2023-03-29T08:49:04.864Z,0.6690
2023-03-29T08:50:05.931Z,0.6749
2023-03-29T08:51:09.432Z,0.6695
2023-03-29T08:52:08.209Z,0.6613
2023-03-29T08:53:09.185Z,0.6454
2023-03-29T08:54:10.295Z,0.6551
2023-03-29T08:55:11.354Z,0.6468
2023-03-29T08:56:12.454Z,0.6594
2023-03-29T08:57:13.601Z,0.6565
2023-03-29T08:58:14.642Z,0.6497
2023-03-29T08:59:24.424Z,0.6445
2023-03-29T09:00:17.823Z,0.6612
2023-03-29T09:01:18.015Z,0.6654
2023-03-29T09:02:19.270Z,0.6727
2023-03-29T09:03:20.220Z,0.6774
2023-03-29T09:04:21.245Z,0.6723
2023-03-29T09:05:22.350Z,0.6685
2023-03-29T09:06:23.422Z,0.6655
2023-03-29T09:07:26.544Z,0.6645
2023-03-29T09:08:25.636Z,0.6732
2023-03-29T09:09:26.747Z,0.6817
2023-03-29T09:10:27.830Z,0.6886
2023-03-29T09:11:28.929Z,0.6833
2023-03-29T09:12:30.062Z,0.6822
2023-03-29T09:13:31.166Z,0.6830
2023-03-29T09:14:32.250Z,0.6677
2023-03-29T09:15:33.333Z,0.6579
2023-03-29T09:16:34.538Z,0.6340
2023-03-29T09:17:35.595Z,0.6302
2023-03-29T09:18:36.609Z,0.6435
2023-03-29T09:19:37.748Z,0.6368
2023-03-29T09:20:38.819Z,0.6178
2023-03-29T09:21:39.930Z,0.6034
2023-03-29T09:22:41.093Z,0.5979
2023-03-29T09:23:42.131Z,0.5961
2023-03-29T09:24:43.231Z,0.5935
2023-03-29T09:25:53.179Z,0.5897
2023-03-29T09:26:46.440Z,0.5874
2023-03-29T09:27:46.520Z,0.5846
2023-03-29T09:28:47.626Z,0.5785
2023-03-29T09:29:48.747Z,0.5750
2023-03-29T09:30:49.809Z,0.5822
2023-03-29T09:31:50.952Z,0.5811
2023-03-29T09:32:52.137Z,0.5805
2023-03-29T09:33:53.113Z,0.5948
2023-03-29T09:34:54.219Z,0.6000
2023-03-29T09:35:55.333Z,0.5935
2023-03-29T09:36:56.414Z,0.5983
2023-03-29T09:37:57.510Z,0.6036
2023-03-29T09:38:58.601Z,0.6069
2023-03-29T09:39:59.723Z,0.6072
2023-03-29T09:41:00.911Z,0.6073
2023-03-29T09:42:01.891Z,0.5921
2023-03-29T09:43:02.979Z,0.5870
2023-03-29T09:44:04.083Z,0.5721
2023-03-29T09:45:05.193Z,0.5627
2023-03-29T09:46:06.320Z,0.5570
2023-03-29T09:47:07.402Z,0.5537
2023-03-29T09:48:08.529Z,0.5571
2023-03-29T09:49:09.603Z,0.6009
2023-03-29T09:50:19.820Z,0.6752
2023-03-29T09:51:12.775Z,0.6773
2023-03-29T09:52:12.940Z,0.6860
2023-03-29T09:53:13.980Z,0.6818
2023-03-29T09:54:15.093Z,0.6704
2023-03-29T09:55:16.234Z,0.6572
2023-03-29T09:56:17.292Z,0.6591
2023-03-29T09:57:18.437Z,0.6665
2023-03-29T09:58:19.524Z,0.6563
2023-03-29T09:59:20.570Z,0.6348
2023-03-29T10:00:21.713Z,0.6395
2023-03-29T10:01:22.862Z,0.6458
2023-03-29T10:02:23.942Z,0.6481
2023-03-29T10:03:24.987Z,0.6485
2023-03-29T10:04:26.200Z,0.6428
2023-03-29T10:05:27.571Z,0.6459
2023-03-29T10:06:28.300Z,0.6441
2023-03-29T10:07:29.391Z,0.6333
2023-03-29T10:08:30.511Z,0.6210
2023-03-29T10:09:31.581Z,0.6111
2023-03-29T10:10:32.722Z,0.6094
2023-03-29T10:11:33.801Z,0.6136
2023-03-29T10:12:34.880Z,0.6053
2023-03-29T10:13:35.975Z,0.6056
2023-03-29T10:14:37.149Z,0.5976
2023-03-29T10:15:38.180Z,0.5984
2023-03-29T10:16:39.303Z,0.6125
2023-03-29T10:17:40.435Z,0.6245
2023-03-29T10:18:41.534Z,0.6253
2023-03-29T10:19:42.551Z,0.6140
2023-03-29T10:20:43.682Z,0.6096
2023-03-29T10:21:44.757Z,0.6166
2023-03-29T10:22:45.870Z,0.6230
2023-03-29T10:23:47.087Z,0.6117
2023-03-29T10:24:48.048Z,0.6000
2023-03-29T10:25:49.165Z,0.5886
2023-03-29T10:26:50.246Z,0.5715
2023-03-29T10:27:51.336Z,0.5715
2023-03-29T10:28:52.783Z,0.5752
2023-03-29T10:29:53.523Z,0.5958
2023-03-29T10:30:54.651Z,0.6082
2023-03-29T10:31:55.781Z,0.5982
2023-03-29T10:32:56.931Z,0.5956
2023-03-29T10:33:57.908Z,0.5931
2023-03-29T10:34:59.021Z,0.5962
2023-03-29T10:36:00.617Z,0.5968
2023-03-29T10:37:01.407Z,0.5976
2023-03-29T10:38:02.276Z,0.5921
2023-03-29T10:39:05.771Z,0.5931
2023-03-29T10:40:04.493Z,0.5851
2023-03-29T10:41:05.602Z,0.5737
2023-03-29T10:42:06.667Z,0.5683
2023-03-29T10:43:07.778Z,0.5657
2023-03-29T10:44:08.869Z,0.5651
2023-03-29T10:45:09.974Z,0.5718
2023-03-29T10:46:11.159Z,0.5760
2023-03-29T10:47:12.175Z,0.5702
2023-03-29T10:48:13.268Z,0.5675
2023-03-29T10:49:14.375Z,0.5673
2023-03-29T10:50:15.484Z,0.5725
2023-03-29T10:51:16.644Z,0.5627
2023-03-29T10:52:17.638Z,0.5571
2023-03-29T10:53:18.744Z,0.5476
2023-03-29T10:54:19.817Z,0.5441
2023-03-29T10:55:20.924Z,0.5575
2023-03-29T10:56:22.028Z,0.5638
2023-03-29T10:57:23.179Z,0.5589
2023-03-29T10:58:24.191Z,0.5464
2023-03-29T10:59:25.292Z,0.5552
2023-03-29T11:00:26.397Z,0.5644
2023-03-29T11:01:27.583Z,0.5839
2023-03-29T11:02:28.640Z,0.6840
2023-03-29T11:03:29.752Z,0.7102
2023-03-29T11:04:30.796Z,0.6974
2023-03-29T11:05:31.897Z,0.6923
2023-03-29T11:06:32.997Z,0.6798
2023-03-29T11:07:34.113Z,0.6600
2023-03-29T11:08:35.172Z,0.6491
2023-03-29T11:09:36.288Z,0.6363
2023-03-29T11:10:37.373Z,0.6268
2023-03-29T11:11:38.570Z,0.6186
2023-03-29T11:12:39.569Z,0.6045
2023-03-29T11:13:40.676Z,0.5905
2023-03-29T11:14:41.761Z,0.5894
2023-03-29T11:15:42.905Z,0.5871
2023-03-29T11:16:44.087Z,0.5911
2023-03-29T11:17:45.122Z,0.5956
2023-03-29T11:18:46.147Z,0.6154
2023-03-29T11:19:47.438Z,0.6294
2023-03-29T11:20:48.364Z,0.6061
2023-03-29T11:21:49.575Z,0.6075
2023-03-29T11:22:50.552Z,0.6261
2023-03-29T11:23:51.648Z,0.7171
2023-03-29T11:24:52.722Z,0.7280
2023-03-29T11:25:53.830Z,0.7143
2023-03-29T11:26:54.933Z,0.6948
2023-03-29T11:27:56.023Z,0.6908
2023-03-29T11:28:57.117Z,0.6666
2023-03-29T11:29:58.244Z,0.6463
2023-03-29T11:30:59.348Z,0.6479
2023-03-29T11:32:00.588Z,0.6571
2023-03-29T11:33:01.641Z,0.6456
2023-03-29T11:34:02.692Z,0.6383
2023-03-29T11:35:03.784Z,0.6293
2023-03-29T11:36:05.011Z,0.6412
2023-03-29T11:37:06.020Z,0.6176
2023-03-29T11:38:07.067Z,0.5945
2023-03-29T11:39:08.176Z,0.5858
2023-03-29T11:40:09.273Z,0.5834
2023-03-29T11:41:10.382Z,0.5795
2023-03-29T11:42:11.486Z,0.5748
2023-03-29T11:43:12.587Z,0.5907
2023-03-29T11:44:13.656Z,0.5887
2023-03-29T11:45:14.790Z,0.5840
2023-03-29T11:46:15.955Z,0.5816
2023-03-29T11:47:16.972Z,0.5868
2023-03-29T11:48:18.071Z,0.5823
2023-03-29T11:49:19.170Z,0.5865
2023-03-29T11:50:20.263Z,0.6011
2023-03-29T11:51:21.377Z,0.6011
2023-03-29T11:52:22.509Z,0.6061
2023-03-29T11:53:23.558Z,0.6115
2023-03-29T11:54:24.667Z,0.6142
2023-03-29T11:55:25.757Z,0.5983
2023-03-29T11:56:26.859Z,0.6002
2023-03-29T11:57:28.021Z,0.5925
2023-03-29T11:58:29.578Z,0.5768
2023-03-29T11:59:30.176Z,0.5786
2023-03-29T12:00:31.272Z,0.5865
2023-03-29T12:01:32.370Z,0.5915
2023-03-29T12:02:33.559Z,0.5841
2023-03-29T12:03:34.617Z,0.5841
2023-03-29T12:04:35.655Z,0.5946
2023-03-29T12:05:36.773Z,0.5960
2023-03-29T12:06:37.954Z,0.6263
2023-03-29T12:07:38.982Z,0.6504
2023-03-29T12:08:40.057Z,0.6437
2023-03-29T12:09:41.164Z,0.6421
2023-03-29T12:10:42.255Z,0.6739
2023-03-29T12:11:43.376Z,0.6893
2023-03-29T12:12:44.500Z,0.6737
2023-03-29T12:13:45.581Z,0.6670
2023-03-29T12:14:46.660Z,0.6656
2023-03-29T12:15:47.789Z,0.8914
2023-03-29T12:16:48.969Z,0.9355
2023-03-29T12:17:50.013Z,0.9506
2023-03-29T12:18:51.057Z,0.8753
2023-03-29T12:19:52.208Z,0.8603
2023-03-29T12:20:53.260Z,0.8365
2023-03-29T12:21:54.379Z,0.8088
2023-03-29T12:22:55.488Z,0.8001
2023-03-29T12:23:56.568Z,0.7655
2023-03-29T12:24:57.701Z,0.7491
2023-03-29T12:25:58.770Z,0.7491
2023-03-29T12:26:59.859Z,0.7407
2023-03-29T12:28:01.119Z,0.7299
2023-03-29T12:29:02.065Z,0.7151
2023-03-29T12:30:03.185Z,0.6994
2023-03-29T12:31:04.447Z,0.6942
2023-03-29T12:32:05.394Z,0.6827
2023-03-29T12:33:06.565Z,0.6727
2023-03-29T12:34:07.576Z,0.6799
2023-03-29T12:35:08.692Z,0.7181
2023-03-29T12:36:09.838Z,0.7051
2023-03-29T12:37:10.863Z,0.6860
2023-03-29T12:38:11.997Z,0.6789
2023-03-29T12:39:13.065Z,0.6682
2023-03-29T12:40:14.177Z,0.6636
2023-03-29T12:41:15.264Z,0.6499
2023-03-29T12:42:16.396Z,0.6378